createdAt,value
2018-05-27T00:00:00.024Z,47
2018-05-27T00:00:12.494Z,19
2018-05-27T00:00:24.956Z,34
2018-05-27T00:00:37.398Z,34
2018-05-27T00:00:49.830Z,34
2018-05-27T00:01:02.286Z,34
2018-05-27T00:01:14.746Z,34
2018-05-27T00:01:27.175Z,348
2018-05-27T00:01:39.677Z,343
2018-05-27T00:01:52.316Z,343
2018-05-27T00:02:04.744Z,355
2018-05-27T00:02:17.162Z,355
2018-05-27T00:02:29.569Z,355
2018-05-27T00:02:41.966Z,355
2018-05-27T00:02:54.376Z,355
2018-05-27T00:03:06.770Z,355
2018-05-27T00:03:19.160Z,355
2018-05-27T00:03:31.574Z,355
2018-05-27T00:03:43.985Z,355
2018-05-27T00:03:56.773Z,355
2018-05-27T00:04:09.188Z,355
2018-05-27T00:04:21.592Z,355
2018-05-27T00:04:34.018Z,35
2018-05-27T00:04:46.423Z,22
2018-05-27T00:04:58.828Z,30
2018-05-27T00:05:11.408Z,9
2018-05-27T00:05:23.834Z,350
2018-05-27T00:05:36.229Z,26
2018-05-27T00:05:48.650Z,40
2018-05-27T00:06:01.041Z,40
2018-05-27T00:06:13.457Z,44
2018-05-27T00:06:25.861Z,18
2018-05-27T00:06:38.279Z,13
2018-05-27T00:06:50.691Z,5
2018-05-27T00:07:03.154Z,5
2018-05-27T00:07:15.582Z,5
2018-05-27T00:07:28.026Z,5
2018-05-27T00:07:40.446Z,360
2018-05-27T00:07:52.852Z,355
2018-05-27T00:08:05.250Z,24
2018-05-27T00:08:17.651Z,360
2018-05-27T00:08:30.082Z,15
2018-05-27T00:08:42.496Z,15
2018-05-27T00:08:54.990Z,51
2018-05-27T00:09:07.423Z,31
2018-05-27T00:09:19.860Z,10
2018-05-27T00:09:32.330Z,346
2018-05-27T00:09:44.772Z,5
2018-05-27T00:09:57.208Z,23
2018-05-27T00:10:09.699Z,22
2018-05-27T00:10:22.121Z,321
2018-05-27T00:10:34.541Z,321
2018-05-27T00:10:46.945Z,321
2018-05-27T00:10:59.352Z,323
2018-05-27T00:11:11.796Z,325
2018-05-27T00:11:24.233Z,325
2018-05-27T00:11:36.663Z,325
2018-05-27T00:11:49.101Z,325
2018-05-27T00:12:01.519Z,325
2018-05-27T00:12:13.950Z,327
2018-05-27T00:12:26.356Z,345
2018-05-27T00:12:38.783Z,345
2018-05-27T00:12:51.258Z,345
2018-05-27T00:13:03.667Z,345
2018-05-27T00:13:16.093Z,345
2018-05-27T00:13:28.515Z,13
2018-05-27T00:13:40.942Z,32
2018-05-27T00:13:53.538Z,33
2018-05-27T00:14:06.177Z,32
2018-05-27T00:14:18.584Z,32
2018-05-27T00:14:31.021Z,25
2018-05-27T00:14:43.447Z,355
2018-05-27T00:14:55.880Z,338
2018-05-27T00:15:08.308Z,5
2018-05-27T00:15:20.730Z,27
2018-05-27T00:15:33.155Z,28
2018-05-27T00:15:45.576Z,17
2018-05-27T00:15:58.145Z,16
2018-05-27T00:16:10.567Z,16
2018-05-27T00:16:22.977Z,340
2018-05-27T00:16:35.394Z,342
2018-05-27T00:16:47.985Z,342
2018-05-27T00:17:00.422Z,347
2018-05-27T00:17:12.827Z,347
2018-05-27T00:17:25.253Z,347
2018-05-27T00:17:37.664Z,347
2018-05-27T00:17:50.215Z,347
2018-05-27T00:18:02.629Z,15
2018-05-27T00:18:15.205Z,22
2018-05-27T00:18:27.605Z,27
2018-05-27T00:18:40.031Z,33
2018-05-27T00:18:52.451Z,35
2018-05-27T00:19:04.864Z,41
2018-05-27T00:19:17.425Z,44
2018-05-27T00:19:29.864Z,355
2018-05-27T00:19:42.406Z,355
2018-05-27T00:19:54.859Z,355
2018-05-27T00:20:07.314Z,355
2018-05-27T00:20:19.755Z,355
2018-05-27T00:20:33.407Z,355
2018-05-27T00:20:45.819Z,5
2018-05-27T00:20:58.230Z,5
2018-05-27T00:21:10.658Z,5
2018-05-27T00:21:23.072Z,360
2018-05-27T00:21:35.486Z,335
2018-05-27T00:21:47.905Z,53
2018-05-27T00:22:00.391Z,355
2018-05-27T00:22:12.831Z,336
2018-05-27T00:22:25.272Z,341
2018-05-27T00:22:37.687Z,49
2018-05-27T00:22:50.108Z,36
2018-05-27T00:23:02.531Z,36
2018-05-27T00:23:14.947Z,36
2018-05-27T00:23:27.382Z,31
2018-05-27T00:23:39.835Z,355
2018-05-27T00:23:52.294Z,341
2018-05-27T00:24:04.711Z,5
2018-05-27T00:24:17.138Z,71
2018-05-27T00:24:29.567Z,71
2018-05-27T00:24:42.009Z,39
2018-05-27T00:24:54.425Z,38
2018-05-27T00:25:06.860Z,38
2018-05-27T00:25:19.269Z,38
2018-05-27T00:25:31.667Z,38
2018-05-27T00:25:44.114Z,13
2018-05-27T00:25:56.525Z,338
2018-05-27T00:26:08.989Z,332
2018-05-27T00:26:21.420Z,333
2018-05-27T00:26:33.864Z,360
2018-05-27T00:26:46.283Z,360
2018-05-27T00:26:58.703Z,360
2018-05-27T00:27:11.104Z,360
2018-05-27T00:27:23.503Z,360
2018-05-27T00:27:35.930Z,360
2018-05-27T00:27:48.392Z,360
2018-05-27T00:28:00.787Z,360
2018-05-27T00:28:13.182Z,360
2018-05-27T00:28:25.625Z,20
2018-05-27T00:28:38.049Z,37
2018-05-27T00:28:50.457Z,355
2018-05-27T00:29:02.929Z,351
2018-05-27T00:29:15.442Z,9
2018-05-27T00:29:27.908Z,9
2018-05-27T00:29:40.336Z,20
2018-05-27T00:29:52.798Z,19
2018-05-27T00:30:05.235Z,19
2018-05-27T00:30:17.673Z,32
2018-05-27T00:30:30.105Z,56
2018-05-27T00:30:42.533Z,355
2018-05-27T00:30:54.945Z,59
2018-05-27T00:31:07.366Z,355
2018-05-27T00:31:19.814Z,355
2018-05-27T00:31:32.234Z,355
2018-05-27T00:31:44.674Z,31
2018-05-27T00:31:57.086Z,336
2018-05-27T00:32:09.508Z,360
2018-05-27T00:32:21.932Z,355
2018-05-27T00:32:34.335Z,5
2018-05-27T00:32:46.746Z,38
2018-05-27T00:32:59.183Z,38
2018-05-27T00:33:11.609Z,38
2018-05-27T00:33:24.046Z,65
2018-05-27T00:33:36.460Z,46
2018-05-27T00:33:48.903Z,44
2018-05-27T00:34:01.332Z,5
2018-05-27T00:34:13.766Z,69
2018-05-27T00:34:26.232Z,84
2018-05-27T00:34:38.651Z,84
2018-05-27T00:34:51.072Z,20
2018-05-27T00:35:03.483Z,21
2018-05-27T00:35:15.919Z,21
2018-05-27T00:35:28.347Z,40
2018-05-27T00:35:40.755Z,19
2018-05-27T00:35:53.177Z,22
2018-05-27T00:36:05.595Z,30
2018-05-27T00:36:18.015Z,55
2018-05-27T00:36:30.442Z,53
2018-05-27T00:36:42.866Z,90
2018-05-27T00:36:55.278Z,24
2018-05-27T00:37:07.700Z,11
2018-05-27T00:37:20.128Z,11
2018-05-27T00:37:32.546Z,22
2018-05-27T00:37:44.958Z,319
2018-05-27T00:37:57.394Z,319
2018-05-27T00:38:09.902Z,346
2018-05-27T00:38:22.331Z,346
2018-05-27T00:38:34.750Z,346
2018-05-27T00:38:47.168Z,17
2018-05-27T00:38:59.824Z,16
2018-05-27T00:39:12.242Z,15
2018-05-27T00:39:24.713Z,15
2018-05-27T00:39:37.164Z,15
2018-05-27T00:39:49.633Z,15
2018-05-27T00:40:02.089Z,27
2018-05-27T00:40:14.537Z,32
2018-05-27T00:40:26.947Z,32
2018-05-27T00:40:39.366Z,32
2018-05-27T00:40:51.771Z,32
2018-05-27T00:41:04.340Z,32
2018-05-27T00:41:16.781Z,32
2018-05-27T00:41:29.227Z,32
2018-05-27T00:41:41.640Z,32
2018-05-27T00:41:54.045Z,32
2018-05-27T00:42:06.469Z,32
2018-05-27T00:42:18.885Z,32
2018-05-27T00:42:31.289Z,32
2018-05-27T00:42:43.869Z,329
2018-05-27T00:42:56.283Z,329
2018-05-27T00:43:08.690Z,329
2018-05-27T00:43:21.109Z,329
2018-05-27T00:43:33.561Z,329
2018-05-27T00:43:45.979Z,340
2018-05-27T00:43:58.437Z,343
2018-05-27T00:44:10.836Z,338
2018-05-27T00:44:23.255Z,32
2018-05-27T00:44:35.673Z,61
2018-05-27T00:44:48.117Z,61
2018-05-27T00:45:00.549Z,48
2018-05-27T00:45:12.974Z,360
2018-05-27T00:45:25.384Z,355
2018-05-27T00:45:37.799Z,41
2018-05-27T00:45:50.223Z,29
2018-05-27T00:46:02.642Z,19
2018-05-27T00:46:15.054Z,355
2018-05-27T00:46:27.477Z,355
2018-05-27T00:46:39.882Z,355
2018-05-27T00:46:52.288Z,5
2018-05-27T00:47:04.712Z,5
2018-05-27T00:47:17.144Z,340
2018-05-27T00:47:29.575Z,343
2018-05-27T00:47:42.033Z,343
2018-05-27T00:47:54.451Z,343
2018-05-27T00:48:06.886Z,343
2018-05-27T00:48:19.321Z,343
2018-05-27T00:48:31.893Z,5
2018-05-27T00:48:44.322Z,40
2018-05-27T00:48:56.764Z,42
2018-05-27T00:49:09.177Z,59
2018-05-27T00:49:21.596Z,59
2018-05-27T00:49:34.056Z,59
2018-05-27T00:49:46.473Z,57
2018-05-27T00:49:59.595Z,65
2018-05-27T00:50:12.091Z,88
2018-05-27T00:50:24.521Z,38
2018-05-27T00:50:36.950Z,36
2018-05-27T00:50:49.406Z,36
2018-05-27T00:51:01.833Z,360
2018-05-27T00:51:14.281Z,45
2018-05-27T00:51:26.692Z,44
2018-05-27T00:51:39.127Z,15
2018-05-27T00:51:51.559Z,15
2018-05-27T00:52:03.997Z,15
2018-05-27T00:52:16.405Z,15
2018-05-27T00:52:28.917Z,44
2018-05-27T00:52:41.338Z,44
2018-05-27T00:52:53.743Z,21
2018-05-27T00:53:06.146Z,18
2018-05-27T00:53:18.628Z,19
2018-05-27T00:53:31.032Z,360
2018-05-27T00:53:43.456Z,360
2018-05-27T00:53:55.881Z,61
2018-05-27T00:54:08.326Z,71
2018-05-27T00:54:20.753Z,71
2018-05-27T00:54:33.185Z,71
2018-05-27T00:54:45.600Z,24
2018-05-27T00:54:58.021Z,5
2018-05-27T00:55:10.420Z,5
2018-05-27T00:55:22.830Z,5
2018-05-27T00:55:35.262Z,10
2018-05-27T00:55:47.727Z,11
2018-05-27T00:56:00.151Z,11
2018-05-27T00:56:12.596Z,11
2018-05-27T00:56:25.064Z,46
2018-05-27T00:56:37.494Z,24
2018-05-27T00:56:49.902Z,48
2018-05-27T00:57:02.312Z,24
2018-05-27T00:57:14.750Z,355
2018-05-27T00:57:27.218Z,9
2018-05-27T00:57:39.646Z,63
2018-05-27T00:57:52.072Z,63
2018-05-27T00:58:04.499Z,60
2018-05-27T00:58:16.924Z,355
2018-05-27T00:58:29.314Z,355
2018-05-27T00:58:41.726Z,49
2018-05-27T00:58:54.141Z,49
2018-05-27T00:59:06.613Z,52
2018-05-27T00:59:19.033Z,52
2018-05-27T00:59:31.439Z,32
2018-05-27T00:59:43.870Z,25
2018-05-27T00:59:56.304Z,36
2018-05-27T01:00:08.738Z,349
2018-05-27T01:00:21.193Z,9
2018-05-27T01:00:33.654Z,41
2018-05-27T01:00:46.123Z,57
2018-05-27T01:00:58.556Z,51
2018-05-27T01:01:10.984Z,66
2018-05-27T01:01:23.483Z,59
2018-05-27T01:01:35.950Z,5
2018-05-27T01:01:48.418Z,5
2018-05-27T01:02:00.837Z,15
2018-05-27T01:02:13.261Z,22
2018-05-27T01:02:25.701Z,5
2018-05-27T01:02:38.125Z,349
2018-05-27T01:02:50.552Z,355
2018-05-27T01:03:02.977Z,9
2018-05-27T01:03:15.386Z,41
2018-05-27T01:03:27.813Z,5
2018-05-27T01:03:40.229Z,43
2018-05-27T01:03:52.809Z,32
2018-05-27T01:04:05.247Z,351
2018-05-27T01:04:17.669Z,360
2018-05-27T01:04:30.152Z,346
2018-05-27T01:04:42.573Z,20
2018-05-27T01:04:55.002Z,40
2018-05-27T01:05:07.452Z,39
2018-05-27T01:05:19.928Z,360
2018-05-27T01:05:32.358Z,347
2018-05-27T01:05:44.794Z,36
2018-05-27T01:05:57.357Z,46
2018-05-27T01:06:09.805Z,25
2018-05-27T01:06:22.225Z,12
2018-05-27T01:06:34.653Z,17
2018-05-27T01:06:47.075Z,5
2018-05-27T01:06:59.515Z,29
2018-05-27T01:07:11.937Z,45
2018-05-27T01:07:24.346Z,45
2018-05-27T01:07:36.765Z,360
2018-05-27T01:07:49.159Z,329
2018-05-27T01:08:01.584Z,342
2018-05-27T01:08:14.003Z,336
2018-05-27T01:08:26.436Z,336
2018-05-27T01:08:38.862Z,335
2018-05-27T01:08:51.286Z,335
2018-05-27T01:09:03.728Z,335
2018-05-27T01:09:16.146Z,335
2018-05-27T01:09:28.562Z,360
2018-05-27T01:09:40.982Z,41
2018-05-27T01:09:53.444Z,41
2018-05-27T01:10:05.863Z,5
2018-05-27T01:10:18.334Z,16
2018-05-27T01:10:30.757Z,360
2018-05-27T01:10:43.199Z,344
2018-05-27T01:10:55.674Z,344
2018-05-27T01:11:08.078Z,344
2018-05-27T01:11:20.509Z,345
2018-05-27T01:11:32.939Z,349
2018-05-27T01:11:45.362Z,355
2018-05-27T01:11:57.779Z,355
2018-05-27T01:12:10.202Z,355
2018-05-27T01:12:22.630Z,355
2018-05-27T01:12:35.047Z,355
2018-05-27T01:12:47.526Z,355
2018-05-27T01:12:59.937Z,355
2018-05-27T01:13:12.357Z,31
2018-05-27T01:13:24.787Z,35
2018-05-27T01:13:37.200Z,22
2018-05-27T01:13:49.631Z,10
2018-05-27T01:14:02.074Z,10
2018-05-27T01:14:14.545Z,10
2018-05-27T01:14:26.952Z,11
2018-05-27T01:14:39.372Z,10
2018-05-27T01:14:51.784Z,10
2018-05-27T01:15:04.195Z,10
2018-05-27T01:15:16.614Z,10
2018-05-27T01:15:29.064Z,10
2018-05-27T01:15:41.478Z,10
2018-05-27T01:15:53.869Z,10
2018-05-27T01:16:06.290Z,10
2018-05-27T01:16:18.725Z,10
2018-05-27T01:16:31.133Z,10
2018-05-27T01:16:43.552Z,51
2018-05-27T01:16:55.953Z,61
2018-05-27T01:17:08.369Z,32
2018-05-27T01:17:20.788Z,324
2018-05-27T01:17:33.197Z,324
2018-05-27T01:17:45.653Z,324
2018-05-27T01:17:58.063Z,324
2018-05-27T01:18:10.881Z,324
2018-05-27T01:18:23.319Z,324
2018-05-27T01:18:35.882Z,324
2018-05-27T01:18:48.336Z,23
2018-05-27T01:19:00.752Z,355
2018-05-27T01:19:13.178Z,5
2018-05-27T01:19:25.602Z,5
2018-05-27T01:19:38.206Z,9
2018-05-27T01:19:50.618Z,9
2018-05-27T01:20:03.061Z,24
2018-05-27T01:20:15.493Z,24
2018-05-27T01:20:27.898Z,23
2018-05-27T01:20:40.617Z,22
2018-05-27T01:20:53.070Z,22
2018-05-27T01:21:05.492Z,23
2018-05-27T01:21:17.892Z,24
2018-05-27T01:21:30.311Z,355
2018-05-27T01:21:42.744Z,355
2018-05-27T01:21:55.174Z,27
2018-05-27T01:22:07.595Z,19
2018-05-27T01:22:20.040Z,19
2018-05-27T01:22:32.463Z,19
2018-05-27T01:22:44.875Z,19
2018-05-27T01:22:57.286Z,19
2018-05-27T01:23:09.700Z,19
2018-05-27T01:23:22.107Z,19
2018-05-27T01:23:34.704Z,19
2018-05-27T01:23:47.117Z,5
2018-05-27T01:23:59.536Z,21
2018-05-27T01:24:11.946Z,21
2018-05-27T01:24:24.409Z,21
2018-05-27T01:24:36.857Z,21
2018-05-27T01:24:49.276Z,5
2018-05-27T01:25:01.749Z,350
2018-05-27T01:25:14.190Z,351
2018-05-27T01:25:26.608Z,13
2018-05-27T01:25:39.049Z,13
2018-05-27T01:25:51.464Z,13
2018-05-27T01:26:03.876Z,14
2018-05-27T01:26:16.296Z,9
2018-05-27T01:26:28.711Z,10
2018-05-27T01:26:41.136Z,350
2018-05-27T01:26:53.574Z,351
2018-05-27T01:27:05.981Z,355
2018-05-27T01:27:18.421Z,11
2018-05-27T01:27:30.825Z,11
2018-05-27T01:27:43.256Z,18
2018-05-27T01:27:55.672Z,35
2018-05-27T01:28:08.115Z,35
2018-05-27T01:28:20.522Z,35
2018-05-27T01:28:32.992Z,35
2018-05-27T01:28:45.430Z,9
2018-05-27T01:28:57.864Z,9
2018-05-27T01:29:10.301Z,9
2018-05-27T01:29:22.875Z,10
2018-05-27T01:29:35.305Z,5
2018-05-27T01:29:47.724Z,9
2018-05-27T01:30:00.140Z,9
2018-05-27T01:30:12.580Z,9
2018-05-27T01:30:25.005Z,5
2018-05-27T01:30:37.451Z,9
2018-05-27T01:30:49.888Z,9
2018-05-27T01:31:02.315Z,9
2018-05-27T01:31:14.736Z,9
2018-05-27T01:31:27.150Z,9
2018-05-27T01:31:39.617Z,9
2018-05-27T01:31:52.031Z,9
2018-05-27T01:32:04.443Z,9
2018-05-27T01:32:16.875Z,9
2018-05-27T01:32:29.318Z,9
2018-05-27T01:32:41.726Z,9
2018-05-27T01:32:54.182Z,9
2018-05-27T01:33:06.608Z,9
2018-05-27T01:33:19.050Z,9
2018-05-27T01:33:31.466Z,9
2018-05-27T01:33:43.901Z,9
2018-05-27T01:33:56.320Z,9
2018-05-27T01:34:08.749Z,9
2018-05-27T01:34:21.207Z,9
2018-05-27T01:34:33.617Z,9
2018-05-27T01:34:46.034Z,9
2018-05-27T01:34:58.497Z,9
2018-05-27T01:35:10.931Z,9
2018-05-27T01:35:23.361Z,9
2018-05-27T01:35:35.787Z,9
2018-05-27T01:35:48.201Z,9
2018-05-27T01:36:00.633Z,9
2018-05-27T01:36:13.055Z,9
2018-05-27T01:36:25.469Z,9
2018-05-27T01:36:38.044Z,9
2018-05-27T01:36:50.457Z,9
2018-05-27T01:37:02.892Z,9
2018-05-27T01:37:15.321Z,9
2018-05-27T01:37:27.737Z,9
2018-05-27T01:37:40.155Z,9
2018-05-27T01:37:52.571Z,9
2018-05-27T01:38:04.983Z,9
2018-05-27T01:38:17.389Z,9
2018-05-27T01:38:29.806Z,9
2018-05-27T01:38:42.241Z,9
2018-05-27T01:38:54.840Z,9
2018-05-27T01:39:07.265Z,9
2018-05-27T01:39:19.668Z,9
2018-05-27T01:39:32.120Z,24
2018-05-27T01:39:44.528Z,360
2018-05-27T01:39:56.979Z,360
2018-05-27T01:40:09.411Z,355
2018-05-27T01:40:21.818Z,340
2018-05-27T01:40:34.242Z,340
2018-05-27T01:40:46.655Z,340
2018-05-27T01:40:59.203Z,340
2018-05-27T01:41:11.610Z,341
2018-05-27T01:41:24.018Z,341
2018-05-27T01:41:36.423Z,341
2018-05-27T01:41:48.883Z,341
2018-05-27T01:42:01.332Z,341
2018-05-27T01:42:13.752Z,346
2018-05-27T01:42:26.170Z,346
2018-05-27T01:42:38.580Z,346
2018-05-27T01:42:51.009Z,355
2018-05-27T01:43:03.437Z,9
2018-05-27T01:43:15.840Z,11
2018-05-27T01:43:28.253Z,12
2018-05-27T01:43:40.673Z,34
2018-05-27T01:43:53.089Z,15
2018-05-27T01:44:05.510Z,12
2018-05-27T01:44:17.924Z,33
2018-05-27T01:44:30.334Z,355
2018-05-27T01:44:42.760Z,20
2018-05-27T01:44:55.186Z,32
2018-05-27T01:45:07.626Z,40
2018-05-27T01:45:20.029Z,348
2018-05-27T01:45:32.489Z,347
2018-05-27T01:45:44.919Z,347
2018-05-27T01:45:57.337Z,347
2018-05-27T01:46:09.763Z,360
2018-05-27T01:46:22.200Z,9
2018-05-27T01:46:34.621Z,5
2018-05-27T01:46:47.110Z,13
2018-05-27T01:46:59.605Z,11
2018-05-27T01:47:12.013Z,15
2018-05-27T01:47:24.446Z,351
2018-05-27T01:47:36.856Z,351
2018-05-27T01:47:49.293Z,355
2018-05-27T01:48:01.707Z,355
2018-05-27T01:48:14.142Z,355
2018-05-27T01:48:26.710Z,355
2018-05-27T01:48:39.131Z,344
2018-05-27T01:48:51.701Z,347
2018-05-27T01:49:04.108Z,24
2018-05-27T01:49:16.522Z,63
2018-05-27T01:49:28.944Z,63
2018-05-27T01:49:41.367Z,63
2018-05-27T01:49:53.806Z,63
2018-05-27T01:50:06.224Z,63
2018-05-27T01:50:18.648Z,63
2018-05-27T01:50:31.065Z,63
2018-05-27T01:50:43.514Z,63
2018-05-27T01:50:55.948Z,63
2018-05-27T01:51:08.370Z,63
2018-05-27T01:51:20.800Z,338
2018-05-27T01:51:33.214Z,360
2018-05-27T01:51:45.666Z,360
2018-05-27T01:51:58.106Z,36
2018-05-27T01:52:10.537Z,5
2018-05-27T01:52:23.144Z,20
2018-05-27T01:52:35.572Z,360
2018-05-27T01:52:47.994Z,39
2018-05-27T01:53:00.416Z,56
2018-05-27T01:53:12.837Z,90
2018-05-27T01:53:25.251Z,46
2018-05-27T01:53:37.674Z,5
2018-05-27T01:53:50.103Z,24
2018-05-27T01:54:02.511Z,40
2018-05-27T01:54:14.941Z,40
2018-05-27T01:54:27.393Z,40
2018-05-27T01:54:39.803Z,355
2018-05-27T01:54:52.212Z,355
2018-05-27T01:55:04.659Z,12
2018-05-27T01:55:17.048Z,28
2018-05-27T01:55:29.464Z,28
2018-05-27T01:55:41.889Z,28
2018-05-27T01:55:54.313Z,28
2018-05-27T01:56:06.725Z,28
2018-05-27T01:56:19.167Z,28
2018-05-27T01:56:31.580Z,28
2018-05-27T01:56:43.998Z,28
2018-05-27T01:56:56.406Z,93
2018-05-27T01:57:08.805Z,94
2018-05-27T01:57:21.264Z,51
2018-05-27T01:57:33.732Z,50
2018-05-27T01:57:46.142Z,72
2018-05-27T01:57:58.569Z,63
2018-05-27T01:58:11.005Z,81
2018-05-27T01:58:23.425Z,56
2018-05-27T01:58:35.852Z,56
2018-05-27T01:58:48.273Z,56
2018-05-27T01:59:00.729Z,18
2018-05-27T01:59:13.149Z,69
2018-05-27T01:59:25.583Z,65
2018-05-27T01:59:38.013Z,54
2018-05-27T01:59:50.477Z,49
2018-05-27T02:00:02.910Z,46
2018-05-27T02:00:15.409Z,327
2018-05-27T02:00:27.851Z,327
2018-05-27T02:00:40.289Z,327
2018-05-27T02:00:52.737Z,327
2018-05-27T02:01:05.204Z,327
2018-05-27T02:01:17.675Z,327
2018-05-27T02:01:30.121Z,327
2018-05-27T02:01:42.565Z,327
2018-05-27T02:01:55.008Z,327
2018-05-27T02:02:07.463Z,327
2018-05-27T02:02:19.878Z,29
2018-05-27T02:02:32.347Z,47
2018-05-27T02:02:44.762Z,5
2018-05-27T02:02:57.175Z,5
2018-05-27T02:03:09.593Z,17
2018-05-27T02:03:22.022Z,39
2018-05-27T02:03:34.472Z,69
2018-05-27T02:03:46.899Z,69
2018-05-27T02:03:59.459Z,69
2018-05-27T02:04:11.874Z,69
2018-05-27T02:04:24.284Z,57
2018-05-27T02:04:36.704Z,57
2018-05-27T02:04:49.109Z,9
2018-05-27T02:05:01.519Z,360
2018-05-27T02:05:13.969Z,360
2018-05-27T02:05:26.392Z,5
2018-05-27T02:05:38.793Z,53
2018-05-27T02:05:51.212Z,78
2018-05-27T02:06:03.645Z,42
2018-05-27T02:06:16.118Z,54
2018-05-27T02:06:28.758Z,350
2018-05-27T02:06:41.197Z,350
2018-05-27T02:06:53.627Z,350
2018-05-27T02:07:06.044Z,350
2018-05-27T02:07:18.443Z,350
2018-05-27T02:07:30.854Z,350
2018-05-27T02:07:43.267Z,350
2018-05-27T02:07:55.701Z,350
2018-05-27T02:08:08.137Z,350
2018-05-27T02:08:20.567Z,351
2018-05-27T02:08:33.034Z,351
2018-05-27T02:08:45.462Z,351
2018-05-27T02:08:57.902Z,351
2018-05-27T02:09:10.324Z,351
2018-05-27T02:09:22.751Z,351
2018-05-27T02:09:35.165Z,351
2018-05-27T02:09:47.604Z,351
2018-05-27T02:10:00.019Z,351
2018-05-27T02:10:12.444Z,351
2018-05-27T02:10:24.865Z,351
2018-05-27T02:10:37.305Z,351
2018-05-27T02:10:49.714Z,351
2018-05-27T02:11:02.141Z,351
2018-05-27T02:11:14.579Z,351
2018-05-27T02:11:27.183Z,351
2018-05-27T02:11:39.602Z,351
2018-05-27T02:11:52.021Z,351
2018-05-27T02:12:04.425Z,351
2018-05-27T02:12:16.829Z,351
2018-05-27T02:12:29.236Z,351
2018-05-27T02:12:41.698Z,351
2018-05-27T02:12:54.120Z,355
2018-05-27T02:13:06.538Z,355
2018-05-27T02:13:18.967Z,30
2018-05-27T02:13:31.404Z,30
2018-05-27T02:13:43.829Z,30
2018-05-27T02:13:56.254Z,30
2018-05-27T02:14:08.683Z,30
2018-05-27T02:14:21.134Z,30
2018-05-27T02:14:33.547Z,30
2018-05-27T02:14:45.958Z,30
2018-05-27T02:14:58.378Z,30
2018-05-27T02:15:10.831Z,30
2018-05-27T02:15:23.260Z,32
2018-05-27T02:15:35.669Z,23
2018-05-27T02:15:48.091Z,23
2018-05-27T02:16:00.670Z,23
2018-05-27T02:16:13.124Z,23
2018-05-27T02:16:25.554Z,23
2018-05-27T02:16:37.963Z,27
2018-05-27T02:16:50.391Z,45
2018-05-27T02:17:02.835Z,45
2018-05-27T02:17:15.260Z,42
2018-05-27T02:17:27.679Z,27
2018-05-27T02:17:40.113Z,27
2018-05-27T02:17:52.533Z,27
2018-05-27T02:18:05.024Z,13
2018-05-27T02:18:17.729Z,13
2018-05-27T02:18:30.165Z,13
2018-05-27T02:18:42.593Z,13
2018-05-27T02:18:55.019Z,13
2018-05-27T02:19:07.447Z,13
2018-05-27T02:19:19.910Z,13
2018-05-27T02:19:32.348Z,13
2018-05-27T02:19:44.922Z,13
2018-05-27T02:19:57.358Z,13
2018-05-27T02:20:09.756Z,13
2018-05-27T02:20:22.176Z,13
2018-05-27T02:20:34.618Z,13
2018-05-27T02:20:47.417Z,13
2018-05-27T02:20:59.857Z,13
2018-05-27T02:21:12.278Z,13
2018-05-27T02:21:24.727Z,13
2018-05-27T02:21:37.140Z,13
2018-05-27T02:21:49.557Z,13
2018-05-27T02:22:02.003Z,13
2018-05-27T02:22:14.419Z,13
2018-05-27T02:22:26.863Z,13
2018-05-27T02:22:39.300Z,13
2018-05-27T02:22:51.729Z,13
2018-05-27T02:23:04.159Z,13
2018-05-27T02:23:16.572Z,13
2018-05-27T02:23:28.993Z,13
2018-05-27T02:23:41.416Z,13
2018-05-27T02:23:53.823Z,13
2018-05-27T02:24:06.392Z,13
2018-05-27T02:24:18.792Z,13
2018-05-27T02:24:31.214Z,13
2018-05-27T02:24:43.623Z,13
2018-05-27T02:24:56.044Z,13
2018-05-27T02:25:08.456Z,13
2018-05-27T02:25:20.880Z,13
2018-05-27T02:25:33.306Z,13
2018-05-27T02:25:45.755Z,13
2018-05-27T02:25:58.184Z,13
2018-05-27T02:26:10.657Z,13
2018-05-27T02:26:23.097Z,13
2018-05-27T02:26:35.501Z,13
2018-05-27T02:26:47.927Z,13
2018-05-27T02:27:00.335Z,13
2018-05-27T02:27:12.784Z,13
2018-05-27T02:27:25.184Z,13
2018-05-27T02:27:37.603Z,13
2018-05-27T02:27:50.027Z,13
2018-05-27T02:28:02.477Z,13
2018-05-27T02:28:14.908Z,13
2018-05-27T02:28:27.322Z,13
2018-05-27T02:28:39.855Z,13
2018-05-27T02:28:52.307Z,13
2018-05-27T02:29:04.796Z,13
2018-05-27T02:29:17.361Z,13
2018-05-27T02:29:29.865Z,13
2018-05-27T02:29:42.282Z,13
2018-05-27T02:29:54.695Z,13
2018-05-27T02:30:07.154Z,13
2018-05-27T02:30:19.661Z,13
2018-05-27T02:30:32.086Z,13
2018-05-27T02:30:44.577Z,13
2018-05-27T02:30:57.000Z,13
2018-05-27T02:31:09.606Z,13
2018-05-27T02:31:22.025Z,13
2018-05-27T02:31:34.472Z,13
2018-05-27T02:31:46.918Z,334
2018-05-27T02:31:59.358Z,334
2018-05-27T02:32:11.838Z,334
2018-05-27T02:32:24.308Z,336
2018-05-27T02:32:36.845Z,336
2018-05-27T02:32:49.289Z,336
2018-05-27T02:33:01.807Z,335
2018-05-27T02:33:14.240Z,325
2018-05-27T02:33:26.740Z,336
2018-05-27T02:33:39.179Z,340
2018-05-27T02:33:51.612Z,355
2018-05-27T02:34:04.074Z,360
2018-05-27T02:34:16.546Z,360
2018-05-27T02:34:29.043Z,351
2018-05-27T02:34:41.513Z,317
2018-05-27T02:34:53.964Z,323
2018-05-27T02:35:06.443Z,338
2018-05-27T02:35:18.879Z,355
2018-05-27T02:35:31.317Z,355
2018-05-27T02:35:43.759Z,355
2018-05-27T02:35:56.207Z,355
2018-05-27T02:36:08.823Z,355
2018-05-27T02:36:21.287Z,355
2018-05-27T02:36:33.716Z,355
2018-05-27T02:36:46.150Z,355
2018-05-27T02:36:58.600Z,341
2018-05-27T02:37:11.092Z,13
2018-05-27T02:37:23.517Z,13
2018-05-27T02:37:35.969Z,14
2018-05-27T02:37:48.388Z,14
2018-05-27T02:38:00.830Z,13
2018-05-27T02:38:13.288Z,317
2018-05-27T02:38:25.726Z,333
2018-05-27T02:38:38.172Z,327
2018-05-27T02:38:50.614Z,13
2018-05-27T02:39:03.280Z,338
2018-05-27T02:39:15.754Z,335
2018-05-27T02:39:28.211Z,336
2018-05-27T02:39:40.631Z,336
2018-05-27T02:39:53.052Z,16
2018-05-27T02:40:05.507Z,26
2018-05-27T02:40:17.955Z,26
2018-05-27T02:40:30.398Z,16
2018-05-27T02:40:42.876Z,18
2018-05-27T02:40:55.318Z,19
2018-05-27T02:41:07.808Z,342
2018-05-27T02:41:20.248Z,14
2018-05-27T02:41:32.722Z,9
2018-05-27T02:41:45.161Z,14
2018-05-27T02:41:57.580Z,28
2018-05-27T02:42:10.052Z,360
2018-05-27T02:42:22.488Z,21
2018-05-27T02:42:34.922Z,12
2018-05-27T02:42:47.364Z,12
2018-05-27T02:42:59.811Z,28
2018-05-27T02:43:12.308Z,17
2018-05-27T02:43:24.732Z,15
2018-05-27T02:43:37.196Z,15
2018-05-27T02:43:49.637Z,15
2018-05-27T02:44:02.104Z,15
2018-05-27T02:44:14.530Z,17
2018-05-27T02:44:26.958Z,360
2018-05-27T02:44:39.403Z,360
2018-05-27T02:44:51.864Z,360
2018-05-27T02:45:04.320Z,360
2018-05-27T02:45:16.737Z,360
2018-05-27T02:45:29.172Z,360
2018-05-27T02:45:41.603Z,360
2018-05-27T02:45:54.040Z,360
2018-05-27T02:46:06.537Z,360
2018-05-27T02:46:18.982Z,360
2018-05-27T02:46:31.416Z,5
2018-05-27T02:46:43.874Z,355
2018-05-27T02:46:56.324Z,355
2018-05-27T02:47:08.790Z,355
2018-05-27T02:47:21.215Z,360
2018-05-27T02:47:33.663Z,360
2018-05-27T02:47:46.127Z,360
2018-05-27T02:47:58.584Z,360
2018-05-27T02:48:11.048Z,360
2018-05-27T02:48:23.534Z,360
2018-05-27T02:48:35.972Z,360
2018-05-27T02:48:48.401Z,360
2018-05-27T02:49:00.863Z,360
2018-05-27T02:49:13.358Z,360
2018-05-27T02:49:25.813Z,360
2018-05-27T02:49:38.249Z,11
2018-05-27T02:49:50.731Z,12
2018-05-27T02:50:03.216Z,11
2018-05-27T02:50:15.668Z,11
2018-05-27T02:50:28.149Z,11
2018-05-27T02:50:40.605Z,11
2018-05-27T02:50:53.032Z,11
2018-05-27T02:51:05.590Z,11
2018-05-27T02:51:18.037Z,11
2018-05-27T02:51:30.509Z,11
2018-05-27T02:51:42.937Z,11
2018-05-27T02:51:55.398Z,298
2018-05-27T02:52:07.820Z,347
2018-05-27T02:52:20.265Z,355
2018-05-27T02:52:32.884Z,348
2018-05-27T02:52:45.335Z,5
2018-05-27T02:52:57.793Z,9
2018-05-27T02:53:10.238Z,14
2018-05-27T02:53:22.663Z,355
2018-05-27T02:53:35.101Z,360
2018-05-27T02:53:47.545Z,19
2018-05-27T02:53:59.985Z,19
2018-05-27T02:54:12.424Z,20
2018-05-27T02:54:24.853Z,20
2018-05-27T02:54:37.297Z,14
2018-05-27T02:54:49.733Z,26
2018-05-27T02:55:02.195Z,26
2018-05-27T02:55:14.667Z,336
2018-05-27T02:55:27.167Z,336
2018-05-27T02:55:39.605Z,336
2018-05-27T02:55:52.033Z,336